createdAt,value
2022-10-30T00:00:37.607Z,98709.38
2022-10-30T00:03:04.419Z,98696.06
2022-10-30T00:05:31.459Z,98692.38
2022-10-30T00:07:58.873Z,98689.19
2022-10-30T00:10:26.086Z,98688.75
2022-10-30T00:13:03.163Z,98688.88
2022-10-30T00:15:43.608Z,98681.03
2022-10-30T00:18:15.137Z,98684.91
2022-10-30T00:20:41.922Z,98688.59
2022-10-30T00:23:08.668Z,98685.63
2022-10-30T00:25:36.697Z,98686.47
2022-10-30T00:28:10.200Z,98684.50
2022-10-30T00:30:37.553Z,98692.06
2022-10-30T00:33:04.641Z,98685.25
2022-10-30T00:35:31.721Z,98683.19
2022-10-30T00:38:00.799Z,98683.03
2022-10-30T00:40:28.341Z,98686.34
2022-10-30T00:42:56.066Z,98691.41
2022-10-30T00:45:22.831Z,98689.56
2022-10-30T00:47:58.566Z,98689.16
2022-10-30T00:50:34.825Z,98691.63
2022-10-30T00:53:17.513Z,98683.34
2022-10-30T00:55:59.007Z,98682.34
2022-10-30T00:58:31.878Z,98678.22
2022-10-30T01:01:10.263Z,98679.63
2022-10-30T01:06:49.123Z,98683.09
2022-10-30T01:09:16.070Z,98684.59
2022-10-30T01:11:53.948Z,98683.81
2022-10-30T01:14:28.924Z,98690.88
2022-10-30T01:17:28.967Z,98694.66
2022-10-30T01:20:28.535Z,98687.16
2022-10-30T01:23:10.291Z,98688.50
2022-10-30T01:26:04.269Z,98687.84
2022-10-30T01:29:13.446Z,98683.59
2022-10-30T01:31:43.259Z,98678.78
2022-10-30T01:34:20.696Z,98677.84
2022-10-30T01:37:02.018Z,98682.56
2022-10-30T01:39:33.543Z,98674.63
2022-10-30T01:42:10.035Z,98664.50
2022-10-30T01:44:40.007Z,98665.47
2022-10-30T01:47:44.875Z,98664.38
2022-10-30T01:50:32.794Z,98654.97
2022-10-30T01:53:09.807Z,98656.16
2022-10-30T01:55:43.979Z,98656.16
2022-10-30T01:58:31.447Z,98653.91
2022-10-30T02:00:59.261Z,98652.25
2022-10-30T02:03:26.846Z,98648.88
2022-10-30T02:05:55.546Z,98653.84
2022-10-30T02:08:23.791Z,98655.50
2022-10-30T02:10:57.475Z,98649.19
2022-10-30T02:13:37.229Z,98643.13
2022-10-30T02:16:04.128Z,98648.59
2022-10-30T02:18:34.889Z,98645.94
2022-10-30T02:21:02.637Z,98640.59
2022-10-30T02:23:29.477Z,98645.44
2022-10-30T02:25:56.186Z,98640.75
2022-10-30T02:28:22.786Z,98642.13
2022-10-30T02:30:49.664Z,98648.75
2022-10-30T02:35:44.976Z,98644.69
2022-10-30T02:38:12.135Z,98632.09
2022-10-30T02:40:38.903Z,98629.72
2022-10-30T02:43:07.472Z,98629.50
2022-10-30T02:45:34.163Z,98633.56
2022-10-30T02:48:01.624Z,98635.78
2022-10-30T02:50:29.275Z,98631.34
2022-10-30T02:52:56.352Z,98632.84
2022-10-30T02:55:23.273Z,98630.16
2022-10-30T02:57:52.492Z,98625.50
2022-10-30T03:00:19.227Z,98638.28
2022-10-30T03:02:45.900Z,98629.19
2022-10-30T03:05:12.958Z,98631.00
2022-10-30T03:07:39.559Z,98639.22
2022-10-30T03:10:06.510Z,98634.38
2022-10-30T03:12:33.320Z,98631.59
2022-10-30T03:14:59.928Z,98632.22
2022-10-30T03:17:26.781Z,98638.38
2022-10-30T03:19:53.714Z,98635.91
2022-10-30T03:22:21.204Z,98629.41
2022-10-30T03:24:47.821Z,98629.47
2022-10-30T03:27:14.450Z,98631.28
2022-10-30T03:29:41.108Z,98625.47
2022-10-30T03:32:12.584Z,98629.16
2022-10-30T03:34:50.631Z,98631.69
2022-10-30T03:37:18.874Z,98641.19
2022-10-30T03:39:45.773Z,98643.22
2022-10-30T03:42:15.813Z,98649.84
2022-10-30T03:44:42.852Z,98653.03
2022-10-30T03:47:12.749Z,98654.53
2022-10-30T03:49:41.527Z,98658.19
2022-10-30T03:52:12.355Z,98649.53
2022-10-30T03:54:39.038Z,98656.06
2022-10-30T03:57:15.512Z,98657.22
2022-10-30T04:00:00.454Z,98657.22
2022-10-30T04:02:56.388Z,98662.53
2022-10-30T04:05:29.419Z,98653.28
2022-10-30T04:08:05.512Z,98654.31
2022-10-30T04:10:35.701Z,98657.66
2022-10-30T04:13:07.545Z,98654.66
2022-10-30T04:15:37.832Z,98655.50
2022-10-30T04:18:06.961Z,98664.25
2022-10-30T04:20:37.278Z,98658.28
2022-10-30T04:23:22.627Z,98661.28
2022-10-30T04:25:49.583Z,98659.28
2022-10-30T04:29:17.555Z,98660.81
2022-10-30T04:31:44.823Z,98660.47
2022-10-30T04:34:12.402Z,98660.31
2022-10-30T04:36:39.103Z,98650.84
2022-10-30T04:39:05.803Z,98655.66
2022-10-30T04:41:33.824Z,98658.81
2022-10-30T04:44:14.706Z,98665.63
2022-10-30T04:46:41.331Z,98663.78
2022-10-30T04:49:10.268Z,98655.63
2022-10-30T04:51:37.892Z,98654.28
2022-10-30T04:54:24.934Z,98657.28
2022-10-30T04:57:15.555Z,98659.31
2022-10-30T04:59:48.929Z,98651.00
2022-10-30T05:02:16.060Z,98650.69
2022-10-30T05:04:56.057Z,98655.69
2022-10-30T05:08:21.575Z,98650.88
2022-10-30T05:11:12.230Z,98648.91
2022-10-30T05:13:43.693Z,98650.91
2022-10-30T05:16:13.304Z,98657.06
2022-10-30T05:18:40.496Z,98647.78
2022-10-30T05:21:07.197Z,98646.97
2022-10-30T05:23:38.542Z,98642.97
2022-10-30T05:26:32.106Z,98638.50
2022-10-30T05:29:01.589Z,98643.13
2022-10-30T05:31:35.738Z,98645.47
2022-10-30T05:34:07.320Z,98648.13
2022-10-30T05:36:37.236Z,98642.66
2022-10-30T05:39:04.300Z,98643.13
2022-10-30T05:41:35.139Z,98645.47
2022-10-30T05:44:02.682Z,98652.44
2022-10-30T05:46:29.699Z,98648.94
2022-10-30T05:49:05.640Z,98646.81
2022-10-30T05:51:38.013Z,98635.50
2022-10-30T05:54:08.467Z,98636.00
2022-10-30T05:56:37.876Z,98644.16
2022-10-30T05:59:04.627Z,98642.50
2022-10-30T06:01:31.423Z,98641.47
2022-10-30T06:04:00.979Z,98652.94
2022-10-30T06:06:27.660Z,98646.78
2022-10-30T06:08:55.572Z,98648.44
2022-10-30T06:11:35.048Z,98640.66
2022-10-30T06:14:02.293Z,98648.97
2022-10-30T06:16:39.561Z,98650.66
2022-10-30T06:19:28.499Z,98647.50
2022-10-30T06:22:11.952Z,98650.47
2022-10-30T06:24:46.152Z,98656.31
2022-10-30T06:27:27.869Z,98656.31
2022-10-30T06:29:55.051Z,98656.31
2022-10-30T06:32:22.345Z,98658.13
2022-10-30T06:34:49.435Z,98662.13
2022-10-30T06:37:17.890Z,98662.25
2022-10-30T06:39:51.030Z,98663.44
2022-10-30T06:42:54.767Z,98662.25
2022-10-30T06:45:45.676Z,98658.63
2022-10-30T06:48:29.902Z,98660.59
2022-10-30T06:50:58.024Z,98658.94
2022-10-30T06:53:26.166Z,98666.91
2022-10-30T06:56:07.702Z,98671.06
2022-10-30T06:59:08.303Z,98666.22
2022-10-30T07:01:48.157Z,98666.03
2022-10-30T07:04:17.419Z,98656.50
2022-10-30T07:06:51.086Z,98657.63
2022-10-30T07:09:29.531Z,98654.09
2022-10-30T07:12:07.210Z,98658.88
2022-10-30T07:14:41.823Z,98663.53
2022-10-30T07:17:25.351Z,98663.88
2022-10-30T07:19:57.049Z,98663.16
2022-10-30T07:22:23.837Z,98662.84
2022-10-30T07:24:58.110Z,98661.16
2022-10-30T07:27:53.266Z,98671.91
2022-10-30T07:30:28.689Z,98664.06
2022-10-30T07:33:14.415Z,98665.50
2022-10-30T07:36:16.165Z,98665.63
2022-10-30T07:38:51.459Z,98667.00
2022-10-30T07:41:43.659Z,98663.63
2022-10-30T07:44:33.248Z,98667.53
2022-10-30T07:47:13.061Z,98676.44
2022-10-30T07:49:45.786Z,98668.72
2022-10-30T07:52:17.150Z,98673.34
2022-10-30T07:54:45.994Z,98669.41
2022-10-30T07:57:40.163Z,98677.88
2022-10-30T08:00:16.825Z,98673.13
2022-10-30T08:02:56.810Z,98675.72
2022-10-30T08:05:33.264Z,98673.19
2022-10-30T08:08:09.612Z,98675.69
2022-10-30T08:10:41.952Z,98674.94
2022-10-30T08:13:08.905Z,98671.75
2022-10-30T08:15:36.106Z,98683.91
2022-10-30T08:18:03.522Z,98677.91
2022-10-30T08:20:30.459Z,98675.00
2022-10-30T08:22:59.749Z,98676.16
2022-10-30T08:25:28.745Z,98679.09
2022-10-30T08:28:02.054Z,98674.84
2022-10-30T08:30:35.322Z,98671.47
2022-10-30T08:33:08.402Z,98674.03
2022-10-30T08:35:57.755Z,98671.69
2022-10-30T08:38:30.409Z,98673.44
2022-10-30T08:41:15.888Z,98676.00
2022-10-30T08:43:48.915Z,98673.47
2022-10-30T08:46:19.671Z,98673.38
2022-10-30T08:48:46.662Z,98677.50
2022-10-30T08:51:14.092Z,98678.84
2022-10-30T08:53:44.394Z,98677.63
2022-10-30T08:56:14.157Z,98685.56
2022-10-30T08:59:10.258Z,98669.25
2022-10-30T09:01:39.745Z,98672.63
2022-10-30T09:04:18.704Z,98672.75
2022-10-30T09:07:13.085Z,98670.50
2022-10-30T09:10:02.205Z,98672.03
2022-10-30T09:12:31.991Z,98668.78
2022-10-30T09:15:03.926Z,98669.03
2022-10-30T09:17:39.803Z,98674.88
2022-10-30T09:20:07.162Z,98670.59
2022-10-30T09:22:41.011Z,98679.31
2022-10-30T09:25:11.163Z,98678.28
2022-10-30T09:27:51.516Z,98679.09
2022-10-30T09:30:21.399Z,98679.53
2022-10-30T09:33:00.354Z,98675.66
2022-10-30T09:35:54.647Z,98677.63
2022-10-30T09:38:21.773Z,98684.25
2022-10-30T09:41:03.261Z,98676.22
2022-10-30T09:44:19.375Z,98678.91
2022-10-30T09:47:13.548Z,98674.81
2022-10-30T09:50:14.775Z,98677.09
2022-10-30T09:53:02.661Z,98677.09
2022-10-30T09:55:44.635Z,98681.03
2022-10-30T09:58:28.212Z,98677.31
2022-10-30T10:01:20.051Z,98683.34
2022-10-30T10:04:00.119Z,98673.00
2022-10-30T10:06:47.297Z,98676.72
2022-10-30T10:09:33.487Z,98675.06
2022-10-30T10:12:44.748Z,98675.88
2022-10-30T10:15:19.912Z,98674.25
2022-10-30T10:17:47.190Z,98673.63
2022-10-30T10:20:17.563Z,98675.06
2022-10-30T10:22:51.101Z,98672.19
2022-10-30T10:25:20.076Z,98677.97
2022-10-30T10:28:08.620Z,98677.16
2022-10-30T10:30:45.642Z,98670.53
2022-10-30T10:33:26.281Z,98669.31
2022-10-30T10:36:00.506Z,98672.44
2022-10-30T10:38:50.913Z,98670.97
2022-10-30T10:41:32.741Z,98662.72
2022-10-30T10:44:11.829Z,98664.34
2022-10-30T10:46:48.265Z,98656.94
2022-10-30T10:49:20.877Z,98664.38
2022-10-30T10:52:09.854Z,98654.47
2022-10-30T10:54:43.513Z,98657.75
2022-10-30T10:57:17.862Z,98662.50
2022-10-30T10:59:51.050Z,98656.91
2022-10-30T11:02:23.847Z,98656.50
2022-10-30T11:04:52.854Z,98654.47
2022-10-30T11:07:22.743Z,98654.22
2022-10-30T11:09:56.838Z,98649.06
2022-10-30T11:12:30.882Z,98640.13
2022-10-30T11:15:09.737Z,98633.22
2022-10-30T11:17:43.036Z,98636.31
2022-10-30T11:20:21.448Z,98632.00
2022-10-30T11:22:51.232Z,98636.97
2022-10-30T11:25:25.481Z,98635.94
2022-10-30T11:27:59.622Z,98636.75
2022-10-30T11:30:28.724Z,98633.81
2022-10-30T11:32:57.210Z,98630.25
2022-10-30T11:35:25.346Z,98624.47
2022-10-30T11:38:26.954Z,98624.09
2022-10-30T11:40:53.686Z,98622.44
2022-10-30T11:43:33.147Z,98623.47
2022-10-30T11:46:07.085Z,98622.84
2022-10-30T11:48:42.275Z,98618.28
2022-10-30T11:51:12.700Z,98619.31
2022-10-30T11:53:43.725Z,98623.25
2022-10-30T11:56:19.578Z,98615.41
2022-10-30T11:58:51.775Z,98612.50
2022-10-30T12:01:32.887Z,98617.03
2022-10-30T12:04:15.745Z,98610.47
2022-10-30T12:06:49.984Z,98618.56
2022-10-30T12:09:21.844Z,98615.06
2022-10-30T12:11:49.164Z,98605.19
2022-10-30T12:14:22.098Z,98610.56
2022-10-30T12:16:56.367Z,98600.63
2022-10-30T12:19:25.846Z,98603.75
2022-10-30T12:22:06.364Z,98599.63
2022-10-30T12:24:44.747Z,98594.44
2022-10-30T12:27:16.844Z,98596.75
2022-10-30T12:30:12.878Z,98596.06
2022-10-30T12:32:57.795Z,98596.88
2022-10-30T12:35:41.285Z,98599.16
2022-10-30T12:38:17.883Z,98590.03
2022-10-30T12:40:56.490Z,98591.91
2022-10-30T12:43:27.293Z,98588.59
2022-10-30T12:46:14.462Z,98585.66
2022-10-30T12:48:49.580Z,98589.97
2022-10-30T12:51:43.331Z,98600.53
2022-10-30T12:54:33.857Z,98581.91
2022-10-30T12:57:22.019Z,98585.63
2022-10-30T13:00:15.718Z,98584.00
2022-10-30T13:03:06.796Z,98580.69
2022-10-30T13:05:40.533Z,98584.84
2022-10-30T13:08:15.214Z,98584.22
2022-10-30T13:11:00.198Z,98579.28
2022-10-30T13:13:48.811Z,98573.47
2022-10-30T13:16:24.328Z,98575.56
2022-10-30T13:18:51.722Z,98575.56
2022-10-30T13:21:27.860Z,98580.69
2022-10-30T13:24:06.642Z,98573.06
2022-10-30T13:26:52.550Z,98576.34
2022-10-30T13:29:19.064Z,98565.59
2022-10-30T13:31:58.384Z,98576.56
2022-10-30T13:34:43.769Z,98576.13
2022-10-30T13:37:10.399Z,98572.00
2022-10-30T13:39:40.475Z,98576.34
2022-10-30T13:42:14.896Z,98573.28
2022-10-30T13:44:56.762Z,98573.69
2022-10-30T13:47:55.661Z,98579.72
2022-10-30T13:50:29.585Z,98570.22
2022-10-30T13:52:58.829Z,98564.66
2022-10-30T13:55:29.579Z,98568.78
2022-10-30T13:58:21.788Z,98569.59
2022-10-30T14:01:13.184Z,98571.47
2022-10-30T14:04:26.117Z,98568.56
2022-10-30T14:07:23.985Z,98566.88
2022-10-30T14:10:02.201Z,98565.66
2022-10-30T14:12:52.370Z,98564.63
2022-10-30T14:15:24.669Z,98560.72
2022-10-30T14:18:13.279Z,98565.28
2022-10-30T14:20:43.115Z,98563.41
2022-10-30T14:23:23.678Z,98562.22
2022-10-30T14:26:03.019Z,98557.28
2022-10-30T14:28:30.455Z,98562.47
2022-10-30T14:31:20.671Z,98561.50
2022-10-30T14:33:51.239Z,98559.44
2022-10-30T14:36:34.317Z,98556.97
2022-10-30T14:39:10.604Z,98555.13
2022-10-30T14:42:08.296Z,98565.28
2022-10-30T14:45:00.813Z,98566.13
2022-10-30T14:47:39.661Z,98567.31
2022-10-30T14:50:26.949Z,98571.03
2022-10-30T14:53:27.520Z,98580.75
2022-10-30T14:58:42.588Z,98579.31
2022-10-30T15:01:09.261Z,98573.56
2022-10-30T15:04:01.411Z,98578.50
2022-10-30T15:06:56.416Z,98574.78
2022-10-30T15:09:38.817Z,98571.91
2022-10-30T15:12:42.341Z,98574.38
2022-10-30T15:15:14.497Z,98577.06
2022-10-30T15:17:44.509Z,98576.84
2022-10-30T15:20:34.297Z,98573.13
2022-10-30T15:23:04.088Z,98581.16
2022-10-30T15:25:37.512Z,98579.72
2022-10-30T15:28:06.062Z,98577.63
2022-10-30T15:30:39.328Z,98578.63
2022-10-30T15:33:23.308Z,98581.72
2022-10-30T15:35:49.908Z,98576.53
2022-10-30T15:38:16.617Z,98577.97
2022-10-30T15:40:43.407Z,98577.53
2022-10-30T15:43:13.287Z,98580.00
2022-10-30T15:45:42.093Z,98576.47
2022-10-30T15:48:21.842Z,98584.50
2022-10-30T15:51:15.450Z,98578.69
2022-10-30T15:53:51.574Z,98582.78
2022-10-30T15:56:44.434Z,98584.47
2022-10-30T15:59:29.754Z,98579.88
2022-10-30T16:02:00.861Z,98575.72
2022-10-30T16:04:37.776Z,98573.22
2022-10-30T16:07:18.610Z,98577.06
2022-10-30T16:09:59.391Z,98582.19
2022-10-30T16:12:34.946Z,98595.50
2022-10-30T16:15:09.231Z,98593.59
2022-10-30T16:17:36.001Z,98593.81
2022-10-30T16:20:04.703Z,98600.81
2022-10-30T16:22:34.732Z,98593.56
2022-10-30T16:25:01.965Z,98597.47
2022-10-30T16:27:28.793Z,98596.19
2022-10-30T16:30:00.093Z,98598.03
2022-10-30T16:32:31.248Z,98593.47
2022-10-30T16:34:59.798Z,98599.59
2022-10-30T16:37:39.737Z,98604.91
2022-10-30T16:40:09.490Z,98604.22
2022-10-30T16:42:36.276Z,98599.25
2022-10-30T16:45:12.096Z,98608.94
2022-10-30T16:47:40.974Z,98611.78
2022-10-30T16:50:11.022Z,98606.19
2022-10-30T16:52:37.771Z,98610.84
2022-10-30T16:55:06.856Z,98609.56
2022-10-30T16:57:36.565Z,98617.72
2022-10-30T17:00:05.166Z,98608.25
2022-10-30T17:02:36.342Z,98612.50
2022-10-30T17:05:34.089Z,98616.06
2022-10-30T17:08:04.413Z,98611.69
2022-10-30T17:10:43.441Z,98616.78
2022-10-30T17:13:38.101Z,98621.47
2022-10-30T17:16:25.546Z,98626.75
2022-10-30T17:18:57.192Z,98627.09
2022-10-30T17:21:27.749Z,98626.38
2022-10-30T17:23:59.133Z,98625.38
2022-10-30T17:26:27.396Z,98629.69
2022-10-30T17:28:54.188Z,98630.53
2022-10-30T17:31:42.766Z,98633.66
2022-10-30T17:34:20.560Z,98634.28
2022-10-30T17:36:48.532Z,98638.78
2022-10-30T17:39:15.551Z,98641.97
2022-10-30T17:41:42.873Z,98644.25
2022-10-30T17:44:17.952Z,98651.06
2022-10-30T17:46:44.522Z,98643.75
2022-10-30T17:49:24.162Z,98652.78
2022-10-30T17:51:50.978Z,98654.34
2022-10-30T17:54:21.203Z,98658.22
2022-10-30T17:56:51.053Z,98658.22
2022-10-30T18:00:01.326Z,98667.47
2022-10-30T18:02:51.026Z,98663.50
2022-10-30T18:05:33.800Z,98664.88
2022-10-30T18:08:00.555Z,98666.56
2022-10-30T18:10:27.450Z,98662.63
2022-10-30T18:12:54.093Z,98671.72
2022-10-30T18:16:02.575Z,98663.88
2022-10-30T18:18:31.944Z,98673.22
2022-10-30T18:20:58.630Z,98671.34
2022-10-30T18:23:51.467Z,98670.97
2022-10-30T18:26:20.951Z,98670.38
2022-10-30T18:28:48.715Z,98674.41
2022-10-30T18:31:19.470Z,98679.94
2022-10-30T18:33:46.398Z,98679.50
2022-10-30T18:36:21.885Z,98678.28
2022-10-30T18:38:49.377Z,98682.97
2022-10-30T18:41:19.196Z,98689.59
2022-10-30T18:43:47.267Z,98692.28
2022-10-30T18:46:15.212Z,98690.09
2022-10-30T18:48:42.124Z,98693.91
2022-10-30T18:51:35.706Z,98688.75
2022-10-30T18:54:02.930Z,98692.44
2022-10-30T18:56:33.641Z,98700.84
2022-10-30T18:59:02.524Z,98691.72
2022-10-30T19:01:33.253Z,98700.66
2022-10-30T19:04:04.647Z,98710.50
2022-10-30T19:06:32.964Z,98710.22
2022-10-30T19:08:59.780Z,98712.25
2022-10-30T19:11:28.255Z,98707.63
2022-10-30T19:13:57.184Z,98712.84
2022-10-30T19:16:25.556Z,98707.09
2022-10-30T19:18:52.701Z,98712.66
2022-10-30T19:21:28.199Z,98702.22
2022-10-30T19:23:56.367Z,98699.16
2022-10-30T19:26:23.162Z,98695.69
2022-10-30T19:28:50.098Z,98695.63
2022-10-30T19:31:18.653Z,98710.47
2022-10-30T19:33:46.203Z,98705.06
2022-10-30T19:36:34.487Z,98708.16
2022-10-30T19:39:08.968Z,98706.88
2022-10-30T19:41:37.052Z,98711.13
2022-10-30T19:44:04.421Z,98702.53
2022-10-30T19:46:31.496Z,98703.19
2022-10-30T19:48:59.541Z,98713.94
2022-10-30T19:51:27.672Z,98712.75
2022-10-30T19:53:55.001Z,98710.63
2022-10-30T19:56:22.327Z,98706.03
2022-10-30T19:58:49.532Z,98710.09
2022-10-30T20:01:16.699Z,98719.91
2022-10-30T20:03:43.732Z,98712.13
2022-10-30T20:06:32.203Z,98713.03
2022-10-30T20:09:11.890Z,98715.19
2022-10-30T20:11:38.598Z,98708.38
2022-10-30T20:14:05.391Z,98715.09
2022-10-30T20:16:32.123Z,98714.59
2022-10-30T20:18:58.854Z,98716.94
2022-10-30T20:21:27.526Z,98727.31
2022-10-30T20:23:54.279Z,98737.09
2022-10-30T20:26:27.409Z,98737.72
2022-10-30T20:28:55.331Z,98742.81
2022-10-30T20:31:22.137Z,98742.53
2022-10-30T20:33:48.927Z,98743.59
2022-10-30T20:36:16.023Z,98749.31
2022-10-30T20:38:43.066Z,98761.97
2022-10-30T20:41:23.067Z,98761.97
2022-10-30T20:43:50.612Z,98768.47
2022-10-30T20:58:53.151Z,98764.16
2022-10-30T21:01:57.935Z,98763.50
2022-10-30T21:04:24.840Z,98767.16
2022-10-30T21:06:51.632Z,98769.03
2022-10-30T21:13:48.600Z,98763.91
2022-10-30T21:16:18.673Z,98762.75
2022-10-30T21:26:45.511Z,98761.31
2022-10-30T21:29:39.472Z,98760.69
2022-10-30T21:32:32.180Z,98759.09
2022-10-30T21:43:06.255Z,98768.53
2022-10-30T21:52:43.679Z,98747.94
2022-10-30T22:14:34.291Z,98756.53
2022-10-30T22:17:01.150Z,98757.72
2022-10-30T22:19:56.975Z,98766.03
2022-10-30T22:22:37.182Z,98765.03
2022-10-30T22:25:16.438Z,98765.34
2022-10-30T22:27:47.194Z,98770.31
2022-10-30T22:30:14.514Z,98763.19
2022-10-30T22:32:44.972Z,98770.38
2022-10-30T22:35:11.982Z,98766.22
2022-10-30T22:37:44.498Z,98761.59
2022-10-30T22:40:23.037Z,98767.91
2022-10-30T22:43:15.907Z,98772.91
2022-10-30T22:46:15.623Z,98776.41
2022-10-30T22:49:21.066Z,98771.41
2022-10-30T22:52:23.621Z,98774.72
2022-10-30T22:55:26.487Z,98773.41
2022-10-30T22:58:31.361Z,98771.75
2022-10-30T23:01:24.818Z,98776.75
2022-10-30T23:04:11.143Z,98772.22
2022-10-30T23:06:58.647Z,98772.38
2022-10-30T23:09:37.126Z,98769.75
2022-10-30T23:19:07.247Z,98767.91
2022-10-30T23:22:01.835Z,98769.09
2022-10-30T23:24:56.584Z,98772.75
2022-10-30T23:28:31.127Z,98768.41
2022-10-30T23:31:56.150Z,98771.06
2022-10-30T23:34:33.271Z,98766.59
2022-10-30T23:37:10.224Z,98773.56
2022-10-30T23:39:47.186Z,98770.59
2022-10-30T23:42:48.495Z,98771.41
2022-10-30T23:45:31.756Z,98768.13
2022-10-30T23:48:09.750Z,98770.78
2022-10-30T23:53:32.463Z,98772.78
2022-10-30T23:56:09.202Z,98766.13
2022-10-30T23:59:33.738Z,98769.09
